Time;durP1;ratioP1;P1;durP2;ratioP2;P2;SDS_P1;SDS_P2;PMS_P1;PMS_P2;Temp;Humidity;BMP_temperature;BMP_pressure;BME280_temperature;BME280_humidity;BME280_pressure;Samples;Min_cycle;Max_cycle;Signal;HPM_P1;HPM_P2
2023/07/25 00:01:37;;;;;;;4.40;3.43;;;16.50;99.90;;;;;;5012528;28;20469;-71
2023/07/25 00:04:18;;;;;;;5.30;3.30;;;16.50;99.90;;;;;;5012638;28;21092;-71
2023/07/25 00:07:01;;;;;;;3.70;3.30;;;16.30;99.90;;;;;;5012659;28;20459;-71
2023/07/25 00:09:29;;;;;;;4.67;3.30;;;16.20;99.90;;;;;;4980106;28;20828;-71
2023/07/25 00:12:06;;;;;;;4.47;3.30;;;16.30;99.90;;;;;;5012207;28;20544;-70
2023/07/25 00:14:34;;;;;;;4.33;3.93;;;16.40;99.90;;;;;;5011995;28;20442;-70
2023/07/25 00:17:02;;;;;;;4.30;3.90;;;16.50;99.90;;;;;;5012818;28;20441;-71
2023/07/25 00:19:32;;;;;;;4.13;3.73;;;16.40;99.90;;;;;;5012575;28;20448;-71
2023/07/25 00:22:00;;;;;;;4.03;3.73;;;16.30;99.90;;;;;;5011896;28;20488;-71
2023/07/25 00:24:28;;;;;;;4.20;3.80;;;16.20;99.90;;;;;;5011607;28;20478;-70
2023/07/25 00:26:57;;;;;;;5.10;4.60;;;16.00;99.90;;;;;;5012107;28;20508;-71
2023/07/25 00:29:25;;;;;;;5.83;4.40;;;15.90;99.90;;;;;;5011988;28;20448;-71
2023/07/25 00:31:53;;;;;;;4.87;4.37;;;15.80;99.90;;;;;;5011649;28;20492;-71
2023/07/25 00:34:21;;;;;;;6.17;4.67;;;15.70;99.90;;;;;;5011696;28;20494;-71
2023/07/25 00:36:52;;;;;;;8.60;4.80;;;15.60;99.90;;;;;;5011518;28;20464;-71
2023/07/25 00:39:20;;;;;;;4.07;3.70;;;15.60;99.90;;;;;;5011769;28;20536;-71
2023/07/25 00:41:48;;;;;;;5.47;4.37;;;15.50;99.90;;;;;;5011492;28;21008;-72
2023/07/25 00:44:16;;;;;;;7.13;4.30;;;15.50;99.90;;;;;;5011150;28;20524;-72
2023/07/25 00:46:44;;;;;;;5.10;3.90;;;15.50;99.90;;;;;;5011485;28;20454;-71
2023/07/25 00:49:12;;;;;;;4.83;4.10;;;15.40;99.90;;;;;;5012210;28;20449;-71
2023/07/25 00:51:40;;;;;;;4.50;4.10;;;15.40;99.90;;;;;;5011700;28;20539;-71
2023/07/25 00:54:10;;;;;;;4.53;4.03;;;15.30;99.90;;;;;;5011035;28;20578;-71
2023/07/25 00:56:38;;;;;;;6.20;4.30;;;15.30;99.90;;;;;;5011365;28;20438;-72
2023/07/25 00:59:06;;;;;;;5.60;4.10;;;15.30;99.90;;;;;;5011328;28;20448;-71
2023/07/25 01:01:33;;;;;;;6.03;4.43;;;15.20;99.90;;;;;;5016471;28;20463;-70
2023/07/25 01:04:02;;;;;;;8.00;4.60;;;15.20;99.90;;;;;;5030773;28;20484;-71
2023/07/25 01:06:31;;;;;;;8.70;4.63;;;15.20;99.90;;;;;;5030927;28;20446;-71
2023/07/25 01:08:59;;;;;;;5.40;4.90;;;15.20;99.90;;;;;;5030605;28;20465;-71
2023/07/25 01:11:28;;;;;;;6.70;4.80;;;15.10;99.90;;;;;;5013593;28;20466;-71
2023/07/25 01:13:57;;;;;;;5.13;4.53;;;15.10;99.90;;;;;;5010817;28;20448;-71
2023/07/25 01:16:26;;;;;;;6.73;4.67;;;15.10;99.90;;;;;;5011274;28;20504;-72
2023/07/25 01:18:55;;;;;;;5.70;5.00;;;15.10;99.90;;;;;;5011075;28;21152;-71
2023/07/25 01:21:24;;;;;;;4.40;4.00;;;15.10;99.90;;;;;;5010916;28;20469;-71
2023/07/25 01:23:52;;;;;;;7.90;4.53;;;15.10;99.90;;;;;;5010653;28;20450;-71
2023/07/25 01:26:23;;;;;;;5.53;5.03;;;15.10;99.90;;;;;;5015571;28;20994;-71
2023/07/25 01:28:51;;;;;;;4.23;3.80;;;15.20;99.90;;;;;;5030759;28;20862;-72
2023/07/25 01:31:19;;;;;;;5.90;4.93;;;15.20;99.90;;;;;;5030275;28;20495;-71
2023/07/25 01:33:47;;;;;;;5.60;4.93;;;15.10;99.90;;;;;;5030224;28;20916;-71
2023/07/25 01:36:15;;;;;;;5.60;4.80;;;15.10;99.90;;;;;;5030238;28;20446;-72
2023/07/25 01:38:43;;;;;;;5.37;4.63;;;15.10;99.90;;;;;;5030664;28;20438;-72
2023/07/25 01:41:11;;;;;;;6.57;4.77;;;15.20;99.90;;;;;;5030245;28;20463;-71
2023/07/25 01:43:40;;;;;;;4.90;4.40;;;15.10;99.90;;;;;;5016494;28;20460;-71
2023/07/25 01:46:08;;;;;;;8.07;5.07;;;15.00;99.90;;;;;;5010521;28;20563;-72
2023/07/25 01:48:36;;;;;;;5.43;4.93;;;15.00;99.90;;;;;;5010412;28;20439;-71
2023/07/25 01:51:04;;;;;;;5.03;4.63;;;15.00;99.90;;;;;;5016074;28;20562;-71
2023/07/25 01:53:32;;;;;;;6.97;5.00;;;15.10;99.90;;;;;;5029894;28;20506;-71
2023/07/25 01:56:00;;;;;;;6.93;5.20;;;15.00;99.90;;;;;;5030220;28;20441;-72
2023/07/25 01:58:28;;;;;;;7.60;5.20;;;14.80;99.90;;;;;;5030143;28;20830;-71
2023/07/25 02:00:59;;;;;;;6.93;4.93;;;14.80;99.90;;;;;;5027863;28;20470;-71
2023/07/25 02:03:27;;;;;;;6.97;4.90;;;14.70;99.90;;;;;;5028734;28;20446;-72
2023/07/25 02:05:55;;;;;;;6.20;5.50;;;14.70;99.90;;;;;;5029722;28;20991;-71
2023/07/25 02:08:23;;;;;;;5.90;5.13;;;14.60;99.90;;;;;;5030179;28;20542;-72
2023/07/25 02:10:51;;;;;;;7.53;5.13;;;14.50;99.90;;;;;;5010160;28;20548;-72
2023/07/25 02:13:19;;;;;;;5.97;4.77;;;14.50;99.90;;;;;;5009768;28;20450;-71
2023/07/25 02:15:47;;;;;;;6.47;5.37;;;14.50;99.90;;;;;;5009790;28;20451;-71
2023/07/25 02:18:16;;;;;;;6.13;5.63;;;14.60;99.90;;;;;;5009958;28;20557;-71
2023/07/25 02:20:44;;;;;;;7.40;5.17;;;14.70;99.90;;;;;;5009543;28;20560;-71
2023/07/25 02:23:12;;;;;;;5.50;4.53;;;14.80;99.90;;;;;;5009912;28;20541;-71
2023/07/25 02:25:46;;;;;;;5.93;4.40;;;15.00;99.90;;;;;;5010112;28;20489;-71
2023/07/25 02:28:14;;;;;;;5.10;4.60;;;14.90;99.90;;;;;;5011983;28;20530;-71
2023/07/25 02:31:02;;;;;;;9.60;4.80;;;14.90;99.90;;;;;;5010465;28;20473;-71
2023/07/25 02:33:31;;;;;;;6.90;5.57;;;14.80;99.90;;;;;;5009708;28;20445;-71
2023/07/25 02:36:02;;;;;;;5.20;4.70;;;14.70;99.90;;;;;;5010387;28;20822;-71
2023/07/25 02:38:30;;;;;;;5.53;4.70;;;14.70;99.90;;;;;;5010912;28;21043;-71
2023/07/25 02:41:14;;;;;;;5.40;4.60;;;14.70;99.90;;;;;;4992229;28;20474;-71
2023/07/25 02:43:42;;;;;;;7.47;4.70;;;14.60;99.90;;;;;;5010226;28;20537;-71
2023/07/25 02:46:10;;;;;;;5.47;4.93;;;14.70;99.90;;;;;;5010428;28;20481;-71
2023/07/25 02:48:39;;;;;;;6.00;5.40;;;14.70;99.90;;;;;;5010241;28;20456;-70
2023/07/25 02:51:07;;;;;;;6.33;5.10;;;14.70;99.90;;;;;;5010095;28;20472;-70
2023/07/25 02:53:35;;;;;;;6.13;5.33;;;14.60;99.90;;;;;;5009933;28;20452;-70
2023/07/25 02:56:03;;;;;;;8.03;4.90;;;14.50;99.90;;;;;;5009923;28;20454;-70
2023/07/25 02:58:31;;;;;;;5.87;5.27;;;14.60;99.90;;;;;;5009880;28;20982;-70
2023/07/25 03:01:00;;;;;;;6.50;5.07;;;14.70;99.90;;;;;;5009889;28;20477;-70
2023/07/25 03:03:28;;;;;;;7.87;5.53;;;14.70;99.90;;;;;;5009368;28;20449;-70
2023/07/25 03:05:58;;;;;;;6.43;5.80;;;14.80;99.90;;;;;;5009198;28;20480;-70
2023/07/25 03:08:26;;;;;;;7.10;4.80;;;14.80;99.90;;;;;;5009796;28;20457;-70
2023/07/25 03:10:54;;;;;;;5.40;4.70;;;14.90;99.90;;;;;;5009662;28;20471;-71
2023/07/25 03:13:22;;;;;;;5.93;5.20;;;15.00;99.90;;;;;;5009229;28;20441;-70
2023/07/25 03:15:50;;;;;;;5.30;4.80;;;15.00;99.90;;;;;;5009613;28;21070;-70
2023/07/25 03:18:18;;;;;;;6.87;5.10;;;15.10;99.90;;;;;;5009370;28;20446;-70
2023/07/25 03:20:46;;;;;;;6.57;5.10;;;15.20;99.90;;;;;;5009020;28;20472;-70
2023/07/25 03:23:15;;;;;;;5.80;5.13;;;15.20;99.90;;;;;;5008955;28;20453;-70
2023/07/25 03:25:43;;;;;;;6.40;5.80;;;15.30;99.90;;;;;;5009528;28;20557;-70
2023/07/25 03:28:11;;;;;;;6.50;4.40;;;15.40;99.90;;;;;;5009523;28;20501;-70
2023/07/25 03:30:38;;;;;;;6.03;5.03;;;15.40;99.90;;;;;;5009527;28;21033;-71
2023/07/25 03:33:06;;;;;;;7.43;4.87;;;15.50;99.90;;;;;;5011955;28;21144;-70
2023/07/25 03:35:34;;;;;;;8.47;4.77;;;15.60;99.90;;;;;;5013127;28;20483;-70
2023/07/25 03:38:02;;;;;;;5.90;5.13;;;15.50;99.90;;;;;;5013032;28;20503;-70
2023/07/25 03:40:32;;;;;;;7.30;5.10;;;15.40;99.90;;;;;;5012689;28;20987;-70
2023/07/25 03:43:00;;;;;;;5.20;4.77;;;15.30;99.90;;;;;;5012621;28;20451;-70
2023/07/25 03:45:28;;;;;;;6.40;4.37;;;15.40;99.90;;;;;;5012553;28;20929;-71
2023/07/25 03:47:55;;;;;;;7.10;5.33;;;15.30;99.90;;;;;;5012677;28;20478;-70
2023/07/25 03:50:23;;;;;;;6.80;5.50;;;15.20;99.90;;;;;;5012107;28;20461;-71
2023/07/25 03:52:52;;;;;;;5.97;5.33;;;15.20;99.90;;;;;;5012457;28;20551;-70
2023/07/25 03:55:19;;;;;;;6.20;5.40;;;15.20;99.90;;;;;;5012398;28;20460;-71
2023/07/25 03:57:49;;;;;;;6.20;5.00;;;15.30;99.90;;;;;;5012465;28;21023;-70
2023/07/25 04:00:17;;;;;;;5.77;5.20;;;15.30;99.90;;;;;;5012267;28;20470;-71
2023/07/25 04:02:45;;;;;;;7.30;5.03;;;15.50;99.90;;;;;;5012197;28;20463;-71
2023/07/25 04:05:21;;;;;;;5.40;4.67;;;15.70;99.90;;;;;;5012427;28;20453;-70
2023/07/25 04:07:49;;;;;;;5.50;4.53;;;15.80;99.90;;;;;;5012540;28;20576;-70
2023/07/25 04:10:17;;;;;;;5.60;4.77;;;15.80;99.90;;;;;;5012173;28;20469;-70
2023/07/25 04:12:45;;;;;;;5.67;4.33;;;15.90;99.90;;;;;;5012420;28;20447;-70
2023/07/25 04:15:14;;;;;;;7.00;4.00;;;15.80;99.90;;;;;;5012607;28;20469;-71
2023/07/25 04:17:42;;;;;;;6.50;5.03;;;15.70;99.90;;;;;;5012352;28;20822;-70
2023/07/25 04:20:10;;;;;;;8.63;5.77;;;15.70;99.90;;;;;;5012132;28;20438;-70
2023/07/25 04:22:39;;;;;;;7.77;4.97;;;15.80;99.90;;;;;;5011777;28;20879;-71
2023/07/25 04:25:08;;;;;;;5.03;4.53;;;15.70;99.90;;;;;;5012142;28;20448;-70
2023/07/25 04:27:36;;;;;;;4.97;4.57;;;15.70;99.90;;;;;;5012101;28;20597;-69
2023/07/25 04:30:04;;;;;;;6.47;4.87;;;15.80;99.90;;;;;;5012171;28;20477;-70
2023/07/25 04:32:34;;;;;;;4.83;4.27;;;15.80;99.90;;;;;;5012013;28;20983;-68
2023/07/25 04:35:02;;;;;;;5.27;4.20;;;15.70;99.90;;;;;;5012284;28;20452;-71
2023/07/25 04:37:30;;;;;;;5.03;4.53;;;15.90;99.90;;;;;;5012247;28;20526;-71
2023/07/25 04:39:57;;;;;;;5.37;4.40;;;15.90;99.90;;;;;;5012283;28;20818;-72
2023/07/25 04:42:25;;;;;;;6.50;4.77;;;15.90;99.90;;;;;;5011603;28;20441;-69
2023/07/25 04:44:53;;;;;;;4.80;4.40;;;16.00;99.90;;;;;;5012227;28;20450;-68
2023/07/25 04:47:25;;;;;;;4.43;4.03;;;16.00;99.90;;;;;;5011848;28;20486;-70
2023/07/25 04:49:54;;;;;;;5.70;5.20;;;16.20;99.90;;;;;;5011688;28;20441;-68
2023/07/25 04:52:22;;;;;;;6.43;4.60;;;16.20;99.90;;;;;;5011644;28;20438;-70
2023/07/25 04:54:52;;;;;;;7.33;4.90;;;16.30;99.90;;;;;;5011522;28;20460;-69
2023/07/25 04:57:21;;;;;;;5.00;4.50;;;16.30;99.90;;;;;;5011766;28;20525;-70
2023/07/25 04:59:49;;;;;;;5.20;4.67;;;16.40;99.90;;;;;;5011689;28;20519;-67
2023/07/25 05:02:18;;;;;;;5.73;4.20;;;16.50;99.90;;;;;;5011383;28;20449;-67
2023/07/25 05:04:46;;;;;;;4.97;4.40;;;16.60;99.90;;;;;;5011548;28;20458;-68
2023/07/25 05:07:16;;;;;;;5.80;5.07;;;16.50;99.90;;;;;;5011392;28;20568;-67
2023/07/25 05:09:44;;;;;;;5.63;4.30;;;16.50;99.90;;;;;;5010584;28;20461;-68
2023/07/25 05:12:13;;;;;;;5.13;4.63;;;16.50;99.90;;;;;;5011120;28;20489;-67
2023/07/25 05:14:41;;;;;;;9.13;4.93;;;16.40;99.90;;;;;;5010756;28;20445;-70
2023/07/25 05:17:09;;;;;;;5.87;4.87;;;16.40;99.90;;;;;;5010846;28;20557;-69
2023/07/25 05:19:37;;;;;;;6.87;5.30;;;16.30;99.90;;;;;;5011010;28;20467;-69
2023/07/25 05:22:06;;;;;;;5.47;4.97;;;16.30;99.90;;;;;;5022850;28;20894;-68
2023/07/25 05:24:35;;;;;;;5.07;4.00;;;16.40;99.90;;;;;;5021254;28;20453;-68
2023/07/25 05:27:03;;;;;;;6.00;5.33;;;16.50;99.90;;;;;;5027380;28;20477;-68
2023/07/25 05:29:33;;;;;;;4.97;4.47;;;16.60;99.90;;;;;;5030494;28;20515;-67
2023/07/25 05:32:04;;;;;;;6.13;5.27;;;16.60;99.90;;;;;;5030246;28;21051;-68
2023/07/25 05:34:32;;;;;;;6.13;4.43;;;16.70;99.90;;;;;;5030049;28;20441;-67
2023/07/25 05:37:01;;;;;;;5.00;4.53;;;16.80;99.90;;;;;;5030177;28;21008;-68
2023/07/25 05:39:29;;;;;;;9.00;5.43;;;16.70;99.90;;;;;;5030423;28;20445;-67
2023/07/25 05:41:58;;;;;;;5.60;5.07;;;16.50;99.90;;;;;;5029906;28;20464;-68
2023/07/25 05:44:26;;;;;;;6.13;5.53;;;16.30;99.90;;;;;;5020096;28;20499;-67
2023/07/25 05:46:54;;;;;;;7.10;5.83;;;16.40;99.90;;;;;;5010434;28;20962;-67
2023/07/25 05:49:22;;;;;;;7.83;6.17;;;16.20;99.90;;;;;;5010488;28;20446;-67
2023/07/25 05:51:50;;;;;;;9.50;6.33;;;16.10;99.90;;;;;;5022381;28;20494;-68
2023/07/25 05:54:18;;;;;;;8.07;6.73;;;16.30;99.90;;;;;;5029913;28;20441;-67
2023/07/25 05:56:46;;;;;;;8.97;6.70;;;16.30;99.90;;;;;;5030717;28;20511;-67
2023/07/25 05:59:15;;;;;;;8.23;6.60;;;16.40;99.90;;;;;;5030243;28;20440;-68
2023/07/25 06:01:43;;;;;;;9.20;6.20;;;16.30;99.90;;;;;;5029753;28;20472;-66
2023/07/25 06:04:13;;;;;;;9.70;6.00;;;16.50;99.90;;;;;;5030028;28;20447;-66
2023/07/25 06:06:41;;;;;;;7.70;6.90;;;16.50;99.90;;;;;;5016055;28;20482;-69
2023/07/25 06:09:09;;;;;;;7.40;6.47;;;16.50;99.90;;;;;;5036597;28;20984;-68
2023/07/25 06:11:37;;;;;;;7.23;6.53;;;16.50;99.90;;;;;;5049657;28;20988;-67
2023/07/25 06:14:05;;;;;;;13.30;7.60;;;16.50;99.90;;;;;;5048927;28;20539;-67
2023/07/25 06:16:37;;;;;;;7.80;6.27;;;16.50;99.90;;;;;;5049820;28;20443;-68
2023/07/25 06:19:05;;;;;;;7.33;6.40;;;16.60;99.90;;;;;;5049649;28;20443;-68
2023/07/25 06:21:33;;;;;;;8.93;6.07;;;16.80;99.90;;;;;;5036552;28;20477;-67
2023/07/25 06:24:01;;;;;;;7.73;6.17;;;16.90;99.90;;;;;;5009915;28;20529;-66
2023/07/25 06:26:29;;;;;;;6.80;6.03;;;17.20;99.90;;;;;;5010853;28;20555;-67
2023/07/25 06:28:58;;;;;;;13.87;6.17;;;17.30;99.90;;;;;;5011527;28;20488;-67
2023/07/25 06:31:26;;;;;;;8.57;5.93;;;17.40;99.90;;;;;;5010367;28;20466;-67
2023/07/25 06:33:55;;;;;;;6.63;5.93;;;17.50;99.90;;;;;;5010105;28;20442;-67
2023/07/25 06:36:26;;;;;;;10.80;7.20;;;17.50;99.90;;;;;;5010004;28;20464;-67
2023/07/25 06:38:54;;;;;;;7.27;6.43;;;17.50;99.90;;;;;;5018681;28;20456;-67
2023/07/25 06:41:22;;;;;;;9.43;7.83;;;17.60;99.90;;;;;;5029847;28;20461;-67
2023/07/25 06:43:50;;;;;;;9.30;7.70;;;17.60;99.90;;;;;;5030671;28;20540;-67
2023/07/25 06:46:20;;;;;;;7.70;6.67;;;17.70;99.90;;;;;;5029915;28;20445;-67
2023/07/25 06:48:48;;;;;;;6.30;5.70;;;17.70;99.90;;;;;;5029949;28;20591;-66
2023/07/25 06:51:17;;;;;;;7.00;6.07;;;17.70;99.90;;;;;;5029699;28;20469;-67
2023/07/25 06:53:45;;;;;;;9.13;7.07;;;17.60;99.90;;;;;;5024019;28;20477;-68
2023/07/25 06:56:13;;;;;;;9.37;6.73;;;17.60;99.90;;;;;;5010340;28;20493;-66
2023/07/25 06:58:41;;;;;;;9.30;7.00;;;17.50;99.90;;;;;;5009847;28;21038;-66
2023/07/25 07:01:09;;;;;;;9.83;7.13;;;17.50;99.90;;;;;;5009964;28;20470;-67
2023/07/25 07:03:37;;;;;;;8.67;7.43;;;17.50;99.90;;;;;;5009652;28;21010;-67
2023/07/25 07:06:05;;;;;;;8.67;7.30;;;17.60;99.90;;;;;;5011033;28;20450;-66
2023/07/25 07:08:34;;;;;;;7.10;6.37;;;17.50;99.90;;;;;;5013395;28;21026;-67
2023/07/25 07:11:02;;;;;;;9.03;7.33;;;17.50;99.90;;;;;;5028046;28;20548;-67
2023/07/25 07:13:30;;;;;;;8.30;7.50;;;17.50;99.90;;;;;;5033011;28;20940;-68
2023/07/25 07:15:58;;;;;;;7.30;6.23;;;17.50;99.90;;;;;;5033161;28;20463;-66
2023/07/25 07:18:26;;;;;;;8.53;7.10;;;17.60;99.90;;;;;;5033198;28;20503;-66
2023/07/25 07:20:54;;;;;;;8.80;6.87;;;17.60;99.90;;;;;;5033385;28;20471;-66
2023/07/25 07:23:22;;;;;;;8.97;6.03;;;17.50;99.90;;;;;;5032806;28;20443;-67
2023/07/25 07:25:52;;;;;;;6.97;5.80;;;17.50;99.90;;;;;;5028373;28;20476;-67
2023/07/25 07:28:20;;;;;;;8.57;7.07;;;17.60;99.90;;;;;;5013110;28;20477;-67
2023/07/25 07:30:49;;;;;;;8.00;6.90;;;17.60;99.90;;;;;;5013165;28;20465;-67
2023/07/25 07:33:18;;;;;;;7.03;5.90;;;17.80;99.90;;;;;;5013121;28;20845;-67
2023/07/25 07:35:46;;;;;;;9.80;5.97;;;17.90;99.90;;;;;;5013130;28;20936;-66
2023/07/25 07:38:14;;;;;;;6.20;5.27;;;18.10;99.90;;;;;;5014754;28;20913;-67
2023/07/25 07:40:42;;;;;;;5.87;4.93;;;18.10;99.90;;;;;;5032651;28;20456;-68
2023/07/25 07:43:12;;;;;;;6.33;4.83;;;18.10;99.90;;;;;;5032207;28;20575;-67
2023/07/25 07:45:40;;;;;;;5.57;4.70;;;18.10;99.90;;;;;;5032795;28;20448;-66
2023/07/25 07:48:07;;;;;;;6.73;5.80;;;18.00;99.90;;;;;;5032594;28;20895;-67
2023/07/25 07:50:35;;;;;;;6.27;5.60;;;18.00;99.90;;;;;;5030057;28;20464;-67
2023/07/25 07:53:04;;;;;;;6.10;5.20;;;17.90;99.90;;;;;;5012250;28;20487;-66
2023/07/25 07:55:32;;;;;;;5.47;4.37;;;18.00;99.90;;;;;;5012656;28;20446;-66
2023/07/25 07:58:00;;;;;;;6.83;5.37;;;18.10;99.90;;;;;;5012809;28;20453;-66
2023/07/25 08:00:32;;;;;;;5.13;3.80;;;18.40;99.90;;;;;;5012527;28;20470;-69
2023/07/25 08:03:01;;;;;;;6.07;4.93;;;18.80;99.90;;;;;;5011368;28;20478;-67
2023/07/25 08:05:29;;;;;;;5.80;4.40;;;19.00;99.90;;;;;;5021279;28;20557;-68
2023/07/25 08:07:57;;;;;;;4.90;4.30;;;19.20;99.90;;;;;;5032192;28;20453;-69
2023/07/25 08:10:25;;;;;;;4.50;4.10;;;19.40;99.90;;;;;;5032045;28;20463;-69
2023/07/25 08:12:53;;;;;;;5.90;4.77;;;19.40;99.90;;;;;;5031972;28;20437;-69
2023/07/25 08:15:21;;;;;;;4.53;4.13;;;19.70;99.90;;;;;;5032205;28;20917;-69
2023/07/25 08:17:51;;;;;;;6.43;3.77;;;19.80;99.90;;;;;;5031652;28;20468;-70
2023/07/25 08:20:19;;;;;;;4.83;3.40;;;20.20;99.90;;;;;;5032613;28;20548;-68
2023/07/25 08:22:48;;;;;;;4.70;3.87;;;20.50;99.90;;;;;;5013317;28;20450;-68
2023/07/25 08:25:16;;;;;;;4.60;4.20;;;20.70;99.90;;;;;;5012510;28;20496;-70
2023/07/25 08:27:44;;;;;;;5.53;4.83;;;20.80;99.90;;;;;;5012933;28;20568;-70
2023/07/25 08:30:12;;;;;;;4.33;3.93;;;20.90;99.90;;;;;;5012427;28;20482;-69
2023/07/25 08:32:40;;;;;;;6.53;4.57;;;20.90;99.90;;;;;;5012101;28;20496;-68
2023/07/25 08:35:09;;;;;;;6.47;4.60;;;20.70;99.90;;;;;;5012415;28;20984;-70
2023/07/25 08:37:37;;;;;;;7.00;4.33;;;20.50;99.90;;;;;;5015204;28;20998;-67
2023/07/25 08:40:07;;;;;;;5.57;4.90;;;20.60;99.90;;;;;;5032091;28;20445;-68
2023/07/25 08:42:37;;;;;;;4.90;4.40;;;20.60;99.90;;;;;;5032164;28;20449;-68
2023/07/25 08:45:07;;;;;;;5.47;4.17;;;20.70;99.90;;;;;;5032142;28;20448;-67
2023/07/25 08:47:38;;;;;;;4.50;4.10;;;20.80;99.90;;;;;;5032032;28;20445;-69
2023/07/25 08:50:16;;;;;;;5.03;4.53;;;21.10;99.90;;;;;;5031823;28;21046;-70
2023/07/25 08:52:49;;;;;;;6.30;3.67;;;21.40;99.90;;;;;;5025809;28;20486;-68
2023/07/25 08:55:17;;;;;;;4.23;3.83;;;21.50;99.90;;;;;;5044132;28;20946;-68
2023/07/25 08:57:46;;;;;;;4.83;4.27;;;21.40;99.90;;;;;;5038548;28;20998;-69
2023/07/25 09:00:14;;;;;;;3.60;3.03;;;21.50;99.90;;;;;;5024486;28;20502;-69
2023/07/25 09:02:42;;;;;;;3.90;2.60;;;21.70;99.90;;;;;;5014669;28;20795;-67
2023/07/25 09:05:12;;;;;;;6.63;2.40;;;22.00;99.90;;;;;;5026040;28;20594;-67
2023/07/25 09:07:40;;;;;;;2.87;2.20;;;22.10;99.90;;;;;;5014846;28;20453;-68
2023/07/25 09:10:08;;;;;;;2.40;1.90;;;22.00;99.90;;;;;;5025972;28;20515;-68
2023/07/25 09:12:36;;;;;;;3.27;2.40;;;21.80;99.90;;;;;;5034386;28;20476;-68
2023/07/25 09:15:05;;;;;;;3.53;2.60;;;21.60;99.90;;;;;;5020397;28;20511;-68
2023/07/25 09:17:33;;;;;;;2.50;2.10;;;21.60;99.90;;;;;;5025223;28;20433;-69
2023/07/25 09:20:02;;;;;;;2.00;1.80;;;21.40;99.90;;;;;;5032233;28;20873;-68
2023/07/25 09:22:32;;;;;;;2.23;2.03;;;21.10;99.90;;;;;;5031444;28;20534;-70
2023/07/25 09:25:00;;;;;;;3.03;2.30;;;20.70;99.90;;;;;;5031344;28;20448;-70
2023/07/25 09:27:28;;;;;;;3.13;2.00;;;20.70;99.90;;;;;;5024527;28;20465;-69
2023/07/25 09:29:56;;;;;;;2.50;2.30;;;20.80;99.90;;;;;;5019667;28;20477;-69
2023/07/25 09:32:27;;;;;;;2.00;1.80;;;21.00;99.90;;;;;;5018370;28;20457;-68
2023/07/25 09:34:56;;;;;;;5.57;2.10;;;21.20;99.90;;;;;;5036151;28;20983;-69
2023/07/25 09:37:24;;;;;;;3.33;2.50;;;21.40;99.90;;;;;;5023525;28;20454;-69
2023/07/25 09:39:54;;;;;;;2.47;2.00;;;21.70;99.90;;;;;;5022547;28;20456;-69
2023/07/25 09:42:22;;;;;;;3.63;1.50;;;22.00;99.90;;;;;;5019153;28;20452;-69
2023/07/25 09:44:52;;;;;;;4.87;1.90;;;22.50;99.90;;;;;;5015902;28;20480;-69
2023/07/25 09:47:24;;;;;;;2.90;2.60;;;22.60;99.90;;;;;;5022016;28;20531;-68
2023/07/25 09:49:53;;;;;;;3.23;2.40;;;22.70;99.90;;;;;;5018623;28;20476;-69
2023/07/25 09:52:21;;;;;;;2.67;2.20;;;23.00;99.90;;;;;;5016664;28;20484;-69
2023/07/25 09:54:50;;;;;;;1.80;1.60;;;23.00;99.90;;;;;;5020123;28;20446;-69
2023/07/25 09:57:19;;;;;;;3.47;1.83;;;22.90;99.90;;;;;;5026590;28;20442;-70
2023/07/25 09:59:49;;;;;;;2.70;1.80;;;22.90;99.90;;;;;;5016267;28;20469;-68
2023/07/25 10:02:17;;;;;;;1.90;1.60;;;22.80;99.90;;;;;;5020701;28;20552;-68
2023/07/25 10:04:47;;;;;;;3.90;2.30;;;22.90;99.90;;;;;;5021592;28;20500;-69
2023/07/25 10:07:15;;;;;;;2.33;1.80;;;23.40;99.90;;;;;;5023448;28;21432;-69
2023/07/25 10:09:45;;;;;;;2.90;1.57;;;23.70;99.90;;;;;;5030174;28;20500;-70
2023/07/25 10:12:14;;;;;;;3.30;2.10;;;24.00;99.90;;;;;;5028867;28;20461;-70
2023/07/25 10:14:43;;;;;;;3.23;2.20;;;24.10;99.90;;;;;;5028054;28;20458;-69
2023/07/25 10:17:12;;;;;;;4.00;1.80;;;24.30;99.90;;;;;;5028930;28;20456;-70
2023/07/25 10:19:50;;;;;;;3.77;1.80;;;24.40;99.90;;;;;;5035349;28;20480;-71
2023/07/25 10:22:33;;;;;;;2.60;1.90;;;24.80;99.90;;;;;;5028494;28;20552;-70
2023/07/25 10:25:08;;;;;;;3.17;1.97;;;24.50;99.90;;;;;;5032074;28;20472;-68
2023/07/25 10:27:37;;;;;;;2.70;1.87;;;24.40;99.90;;;;;;5032651;28;20440;-67
2023/07/25 10:30:22;;;;;;;2.53;2.00;;;24.20;99.90;;;;;;5019447;28;20572;-69
2023/07/25 10:32:52;;;;;;;3.50;2.10;;;24.50;99.90;;;;;;5015005;28;20492;-70
2023/07/25 10:35:46;;;;;;;1.60;1.30;;;24.60;99.90;;;;;;5019900;28;20437;-69
2023/07/25 10:38:15;;;;;;;2.70;1.80;;;24.70;99.90;;;;;;5020580;28;20496;-70
2023/07/25 10:40:57;;;;;;;1.90;1.70;;;25.00;99.90;;;;;;5012619;28;20929;-68
2023/07/25 10:43:29;;;;;;;4.20;2.20;;;24.10;99.90;;;;;;5014312;28;20446;-68
2023/07/25 10:46:01;;;;;;;2.73;1.73;;;23.50;99.90;;;;;;5014511;28;20860;-69
2023/07/25 10:48:31;;;;;;;3.20;2.10;;;22.90;99.90;;;;;;5024279;28;20441;-69
2023/07/25 10:51:00;;;;;;;2.17;1.40;;;22.70;99.90;;;;;;5015084;28;20489;-69
2023/07/25 10:53:28;;;;;;;2.93;1.70;;;22.20;99.90;;;;;;5040319;28;20461;-69
2023/07/25 10:56:16;;;;;;;2.37;1.60;;;22.10;99.90;;;;;;5036242;28;20441;-69
2023/07/25 10:59:05;;;;;;;2.17;1.33;;;21.90;99.90;;;;;;5033629;28;20511;-69
2023/07/25 11:01:47;;;;;;;1.50;1.37;;;21.90;99.90;;;;;;5030574;28;20536;-68
2023/07/25 11:04:26;;;;;;;1.80;1.47;;;21.60;99.90;;;;;;5042459;28;20436;-69
2023/07/25 11:06:56;;;;;;;1.97;1.47;;;21.70;99.90;;;;;;5027346;28;20445;-70
2023/07/25 11:09:25;;;;;;;1.90;0.93;;;21.70;99.90;;;;;;5016900;28;21077;-68
2023/07/25 11:11:55;;;;;;;1.40;0.97;;;21.40;99.90;;;;;;5028858;28;20477;-69
2023/07/25 11:14:24;;;;;;;1.60;1.50;;;21.50;99.90;;;;;;5032143;28;20441;-68
2023/07/25 11:16:54;;;;;;;2.50;1.50;;;21.60;99.90;;;;;;5033544;28;20489;-68
2023/07/25 11:19:26;;;;;;;1.50;1.20;;;21.70;99.90;;;;;;5033487;28;20440;-69
2023/07/25 11:21:54;;;;;;;1.40;1.30;;;22.20;99.90;;;;;;5032757;28;20465;-69
2023/07/25 11:24:22;;;;;;;2.37;1.10;;;22.70;99.90;;;;;;5033017;28;20444;-69
2023/07/25 11:26:50;;;;;;;1.50;1.00;;;23.20;99.80;;;;;;5033172;28;20461;-69
2023/07/25 11:29:18;;;;;;;1.13;1.03;;;23.80;97.80;;;;;;5033558;28;20522;-68
2023/07/25 11:31:49;;;;;;;1.73;1.50;;;23.80;99.10;;;;;;5033099;28;20563;-70
2023/07/25 11:34:20;;;;;;;3.20;1.33;;;24.40;97.00;;;;;;5034128;28;20441;-69
2023/07/25 11:36:48;;;;;;;1.70;1.50;;;24.90;96.50;;;;;;5034154;28;20477;-69
2023/07/25 11:39:18;;;;;;;2.13;1.30;;;25.60;95.20;;;;;;5033486;28;20893;-68
2023/07/25 11:41:47;;;;;;;1.77;1.40;;;25.90;92.80;;;;;;5033225;28;20512;-68
2023/07/25 11:44:17;;;;;;;1.83;1.20;;;26.30;91.10;;;;;;5031189;28;20453;-69
2023/07/25 11:46:48;;;;;;;2.40;1.13;;;27.10;88.20;;;;;;5033151;28;20472;-69
2023/07/25 11:49:18;;;;;;;1.30;0.90;;;26.90;84.00;;;;;;5013896;28;20450;-69
2023/07/25 11:52:07;;;;;;;1.70;1.30;;;26.70;81.70;;;;;;5026175;28;20476;-68
2023/07/25 11:54:35;;;;;;;1.60;1.20;;;26.00;81.00;;;;;;5033181;28;20461;-69
2023/07/25 11:57:05;;;;;;;1.37;1.00;;;25.30;80.70;;;;;;5033593;28;20499;-68
2023/07/25 11:59:39;;;;;;;2.10;1.00;;;24.90;81.80;;;;;;5033015;28;20441;-68
2023/07/25 12:02:08;;;;;;;2.63;1.30;;;24.00;84.30;;;;;;5032786;28;20492;-68
2023/07/25 12:04:44;;;;;;;4.50;1.10;;;22.30;94.50;;;;;;5030713;28;20445;-68
2023/07/25 12:07:13;;;;;;;2.10;0.77;;;20.70;96.00;;;;;;5013156;28;20446;-68
2023/07/25 12:09:49;;;;;;;4.13;1.20;;;19.80;98.70;;;;;;5012492;28;20457;-68
2023/07/25 12:12:18;;;;;;;1.33;0.70;;;19.40;98.80;;;;;;5012387;28;20543;-68
2023/07/25 12:14:54;;;;;;;1.47;1.10;;;19.20;99.00;;;;;;5012455;28;20454;-68
2023/07/25 12:17:22;;;;;;;1.13;0.90;;;18.80;99.90;;;;;;5013336;28;20442;-68
2023/07/25 12:19:55;;;;;;;1.13;0.90;;;18.50;99.90;;;;;;5013028;28;20495;-69
2023/07/25 12:22:23;;;;;;;2.57;1.30;;;18.20;99.90;;;;;;5013829;28;20529;-69
2023/07/25 12:24:51;;;;;;;1.57;1.00;;;17.80;99.90;;;;;;5013534;28;20908;-69
2023/07/25 12:27:20;;;;;;;3.40;1.13;;;17.60;99.90;;;;;;5014313;28;20446;-69
2023/07/25 12:29:48;;;;;;;2.47;1.53;;;17.70;99.90;;;;;;5013628;28;20530;-68
2023/07/25 12:32:16;;;;;;;3.10;1.30;;;17.70;99.90;;;;;;5012018;28;20509;-69
2023/07/25 12:34:45;;;;;;;1.87;1.17;;;17.90;99.90;;;;;;5013239;28;20446;-69
2023/07/25 12:37:14;;;;;;;2.43;1.20;;;17.90;99.90;;;;;;5012810;28;20536;-69
2023/07/25 12:39:42;;;;;;;3.10;1.70;;;18.00;99.90;;;;;;5013852;28;21043;-68
2023/07/25 12:42:10;;;;;;;2.27;0.83;;;17.80;99.90;;;;;;5012432;28;21007;-68
2023/07/25 12:44:38;;;;;;;2.20;1.37;;;17.50;99.90;;;;;;5011787;28;20513;-68
2023/07/25 12:47:06;;;;;;;6.50;1.03;;;17.30;99.90;;;;;;5011822;28;20531;-69
2023/07/25 12:49:34;;;;;;;2.23;1.20;;;17.20;99.90;;;;;;5011625;28;20932;-70
2023/07/25 12:52:02;;;;;;;2.33;1.07;;;17.00;99.90;;;;;;5011626;28;20992;-68
2023/07/25 12:54:32;;;;;;;3.07;0.90;;;16.90;99.90;;;;;;5023135;28;20514;-69
2023/07/25 12:57:00;;;;;;;1.63;1.00;;;17.00;99.90;;;;;;5031517;28;20439;-69